Strona główna
METAR-TAF:

METAR-TAF

Lotnisko :

London-Corbin Airport (Magee Field)

London, Kentucky, Stany Zjednoczone

Szerokość geograficzna: 37-05-22N, Długość geograficzna: 084-04-07W, wysokość: 369 m

Aktualna obserwacja pogody

Raport powstał 53 minut temu, godzina 04:53 UTC
Wiatr 5 kt od północ
Temperatura 16°C
Wilgotność 77%
Ciśnienie 1021 hPa
Widzialność: 16.1 km
bezchmurnie

METAR: KLOZ 310453Z AUTO 01005KT 10SM CLR 16/12 A3015 RMK AO2 SLP201 T01610117 402670139

czas: 01:46 (05:46 UTC)

Prognoza

Raport powstał 8 minut temu, godzina 05:38 UTC
Prognoza ważna od 31 godzina 06 UTC do 01 godzina 06 UTC
Wiatr 3 kt z kierunków zmiennych
Widzialność: 10 km
Mało chmury na wysokości 4500 ft
Od 31 godzina 1500 UTC
Wiatr 5 kt od północ
Widzialność: 10 km
bezchmurnie

TAF: KLOZ 310538Z 3106/0106 VRB03KT P6SM FEW045 FM311500 36005KT P6SM SKC

Obserwacja i prognoza pogody dla ponad 4000 lotnisk (raport METAR i TAF).

Dostępne stacje oznaczono żółtymi i czerwonymi punktami na mapie.

Najedź kursorem aby zobaczyć nazwę stacji.

Kliknij aby zobaczyć obserwacje i prognozy pogody.

Aby zmienić mapę: kliknij na zielony przycisk z czarnym krzyżykiem, aby powiększyć; na zielony przycisk z myślnikiem, aby pomniejszyć; na zielone strzałki, aby przejść do map sąsiednich.


METAR-TAF: